sensor_id;sensor_type;location;lat;lon;timestamp;P1;durP1;ratioP1;P2;durP2;ratioP2
55728;SDS011;41633;39.720;2.910;2023-09-19T00:00:34;11.05;;;2.90;;
55728;SDS011;41633;39.720;2.910;2023-09-19T00:03:01;9.55;;;2.58;;
55728;SDS011;41633;39.720;2.910;2023-09-19T00:05:27;7.40;;;2.60;;
55728;SDS011;41633;39.720;2.910;2023-09-19T00:07:54;8.05;;;2.60;;
55728;SDS011;41633;39.720;2.910;2023-09-19T00:10:24;12.00;;;3.17;;
55728;SDS011;41633;39.720;2.910;2023-09-19T00:12:54;7.50;;;2.28;;
55728;SDS011;41633;39.720;2.910;2023-09-19T00:15:21;9.75;;;2.65;;
55728;SDS011;41633;39.720;2.910;2023-09-19T00:17:47;8.68;;;2.30;;
55728;SDS011;41633;39.720;2.910;2023-09-19T00:20:14;8.07;;;2.92;;
55728;SDS011;41633;39.720;2.910;2023-09-19T00:22:43;10.48;;;2.83;;
55728;SDS011;41633;39.720;2.910;2023-09-19T00:25:10;8.20;;;2.70;;
55728;SDS011;41633;39.720;2.910;2023-09-19T00:27:40;12.27;;;2.97;;
55728;SDS011;41633;39.720;2.910;2023-09-19T00:30:11;9.73;;;3.13;;
55728;SDS011;41633;39.720;2.910;2023-09-19T00:32:44;9.25;;;2.78;;
55728;SDS011;41633;39.720;2.910;2023-09-19T00:35:12;9.55;;;2.95;;
55728;SDS011;41633;39.720;2.910;2023-09-19T00:37:40;10.13;;;3.33;;
55728;SDS011;41633;39.720;2.910;2023-09-19T00:40:09;7.97;;;2.80;;
55728;SDS011;41633;39.720;2.910;2023-09-19T00:42:41;8.93;;;3.20;;
55728;SDS011;41633;39.720;2.910;2023-09-19T00:45:07;8.65;;;3.13;;
55728;SDS011;41633;39.720;2.910;2023-09-19T00:47:59;7.65;;;2.70;;
55728;SDS011;41633;39.720;2.910;2023-09-19T00:50:24;10.10;;;3.15;;
55728;SDS011;41633;39.720;2.910;2023-09-19T00:52:53;8.40;;;2.90;;
55728;SDS011;41633;39.720;2.910;2023-09-19T00:55:21;9.27;;;2.45;;
55728;SDS011;41633;39.720;2.910;2023-09-19T00:57:47;9.85;;;3.13;;
55728;SDS011;41633;39.720;2.910;2023-09-19T01:00:17;9.52;;;2.92;;
55728;SDS011;41633;39.720;2.910;2023-09-19T01:02:45;12.73;;;2.70;;
55728;SDS011;41633;39.720;2.910;2023-09-19T01:05:11;6.88;;;2.20;;
55728;SDS011;41633;39.720;2.910;2023-09-19T01:07:37;8.82;;;2.75;;
55728;SDS011;41633;39.720;2.910;2023-09-19T01:10:11;9.35;;;3.17;;
55728;SDS011;41633;39.720;2.910;2023-09-19T01:15:24;8.60;;;2.38;;
55728;SDS011;41633;39.720;2.910;2023-09-19T01:17:57;11.70;;;2.78;;
55728;SDS011;41633;39.720;2.910;2023-09-19T01:23:00;7.82;;;2.88;;
55728;SDS011;41633;39.720;2.910;2023-09-19T01:25:37;8.32;;;2.92;;
55728;SDS011;41633;39.720;2.910;2023-09-19T01:28:07;7.83;;;2.70;;
55728;SDS011;41633;39.720;2.910;2023-09-19T01:30:39;8.50;;;3.10;;
55728;SDS011;41633;39.720;2.910;2023-09-19T01:33:08;7.78;;;2.72;;
55728;SDS011;41633;39.720;2.910;2023-09-19T01:35:38;7.53;;;2.60;;
55728;SDS011;41633;39.720;2.910;2023-09-19T01:38:08;7.05;;;2.33;;
55728;SDS011;41633;39.720;2.910;2023-09-19T01:40:40;11.63;;;2.80;;
55728;SDS011;41633;39.720;2.910;2023-09-19T01:51:06;8.18;;;2.45;;
55728;SDS011;41633;39.720;2.910;2023-09-19T01:56:40;10.60;;;2.90;;
55728;SDS011;41633;39.720;2.910;2023-09-19T01:59:08;10.73;;;2.90;;
55728;SDS011;41633;39.720;2.910;2023-09-19T02:01:35;7.25;;;2.47;;
55728;SDS011;41633;39.720;2.910;2023-09-19T02:04:03;8.70;;;2.33;;
55728;SDS011;41633;39.720;2.910;2023-09-19T02:06:29;6.97;;;2.33;;
55728;SDS011;41633;39.720;2.910;2023-09-19T02:08:55;7.13;;;2.30;;
55728;SDS011;41633;39.720;2.910;2023-09-19T02:11:21;6.82;;;2.58;;
55728;SDS011;41633;39.720;2.910;2023-09-19T02:13:48;7.57;;;2.33;;
55728;SDS011;41633;39.720;2.910;2023-09-19T02:16:19;7.28;;;2.22;;
55728;SDS011;41633;39.720;2.910;2023-09-19T02:18:47;7.93;;;2.45;;
55728;SDS011;41633;39.720;2.910;2023-09-19T02:21:14;8.75;;;3.00;;
55728;SDS011;41633;39.720;2.910;2023-09-19T02:23:42;8.25;;;2.65;;
55728;SDS011;41633;39.720;2.910;2023-09-19T02:26:08;8.68;;;2.95;;
55728;SDS011;41633;39.720;2.910;2023-09-19T02:28:36;7.10;;;2.30;;
55728;SDS011;41633;39.720;2.910;2023-09-19T02:31:02;7.38;;;2.42;;
55728;SDS011;41633;39.720;2.910;2023-09-19T02:33:31;7.95;;;2.42;;
55728;SDS011;41633;39.720;2.910;2023-09-19T02:35:57;8.88;;;3.05;;
55728;SDS011;41633;39.720;2.910;2023-09-19T02:38:24;8.05;;;2.40;;
55728;SDS011;41633;39.720;2.910;2023-09-19T02:40:51;7.18;;;2.63;;
55728;SDS011;41633;39.720;2.910;2023-09-19T02:43:17;8.80;;;2.78;;
55728;SDS011;41633;39.720;2.910;2023-09-19T02:45:46;8.25;;;2.38;;
55728;SDS011;41633;39.720;2.910;2023-09-19T02:48:15;8.48;;;2.90;;
55728;SDS011;41633;39.720;2.910;2023-09-19T02:50:41;7.97;;;2.78;;
55728;SDS011;41633;39.720;2.910;2023-09-19T02:53:08;7.35;;;2.75;;
55728;SDS011;41633;39.720;2.910;2023-09-19T02:55:37;10.95;;;2.85;;
55728;SDS011;41633;39.720;2.910;2023-09-19T02:58:06;11.38;;;3.13;;
55728;SDS011;41633;39.720;2.910;2023-09-19T03:00:40;9.88;;;3.00;;
55728;SDS011;41633;39.720;2.910;2023-09-19T03:03:07;11.00;;;3.20;;
55728;SDS011;41633;39.720;2.910;2023-09-19T03:05:33;10.00;;;3.20;;
55728;SDS011;41633;39.720;2.910;2023-09-19T03:08:00;8.25;;;2.40;;
55728;SDS011;41633;39.720;2.910;2023-09-19T03:10:27;8.15;;;2.33;;
55728;SDS011;41633;39.720;2.910;2023-09-19T03:12:54;8.57;;;3.00;;
55728;SDS011;41633;39.720;2.910;2023-09-19T03:15:20;6.78;;;2.60;;
55728;SDS011;41633;39.720;2.910;2023-09-19T03:17:47;8.23;;;2.40;;
55728;SDS011;41633;39.720;2.910;2023-09-19T03:20:14;8.18;;;2.60;;
55728;SDS011;41633;39.720;2.910;2023-09-19T03:22:45;9.02;;;2.80;;
55728;SDS011;41633;39.720;2.910;2023-09-19T03:25:11;7.82;;;2.60;;
55728;SDS011;41633;39.720;2.910;2023-09-19T03:27:39;8.13;;;2.38;;
55728;SDS011;41633;39.720;2.910;2023-09-19T03:30:06;7.63;;;2.63;;
55728;SDS011;41633;39.720;2.910;2023-09-19T03:32:34;7.25;;;2.47;;
55728;SDS011;41633;39.720;2.910;2023-09-19T03:35:00;8.18;;;2.58;;
55728;SDS011;41633;39.720;2.910;2023-09-19T03:37:26;9.10;;;2.90;;
55728;SDS011;41633;39.720;2.910;2023-09-19T03:39:52;8.20;;;2.75;;
55728;SDS011;41633;39.720;2.910;2023-09-19T03:42:18;9.02;;;2.55;;
55728;SDS011;41633;39.720;2.910;2023-09-19T03:44:50;8.30;;;2.50;;
55728;SDS011;41633;39.720;2.910;2023-09-19T03:47:17;7.15;;;2.47;;
55728;SDS011;41633;39.720;2.910;2023-09-19T03:49:46;8.73;;;2.85;;
55728;SDS011;41633;39.720;2.910;2023-09-19T03:52:13;14.15;;;3.15;;
55728;SDS011;41633;39.720;2.910;2023-09-19T03:54:41;9.30;;;2.97;;
55728;SDS011;41633;39.720;2.910;2023-09-19T03:57:08;11.40;;;3.10;;
55728;SDS011;41633;39.720;2.910;2023-09-19T03:59:34;8.95;;;2.50;;
55728;SDS011;41633;39.720;2.910;2023-09-19T04:02:01;7.80;;;2.90;;
55728;SDS011;41633;39.720;2.910;2023-09-19T04:04:27;10.25;;;2.83;;
55728;SDS011;41633;39.720;2.910;2023-09-19T04:06:54;8.57;;;2.60;;
55728;SDS011;41633;39.720;2.910;2023-09-19T04:09:20;10.75;;;2.83;;
55728;SDS011;41633;39.720;2.910;2023-09-19T04:11:47;8.10;;;2.72;;
55728;SDS011;41633;39.720;2.910;2023-09-19T04:14:15;9.70;;;2.90;;
55728;SDS011;41633;39.720;2.910;2023-09-19T04:16:41;6.78;;;2.53;;
55728;SDS011;41633;39.720;2.910;2023-09-19T04:19:07;8.73;;;3.05;;
55728;SDS011;41633;39.720;2.910;2023-09-19T04:21:33;9.23;;;3.20;;
55728;SDS011;41633;39.720;2.910;2023-09-19T04:23:59;10.23;;;3.50;;
55728;SDS011;41633;39.720;2.910;2023-09-19T04:26:25;8.15;;;3.22;;
55728;SDS011;41633;39.720;2.910;2023-09-19T04:28:51;10.73;;;3.03;;
55728;SDS011;41633;39.720;2.910;2023-09-19T04:31:17;9.07;;;3.42;;
55728;SDS011;41633;39.720;2.910;2023-09-19T04:33:45;12.07;;;3.42;;
55728;SDS011;41633;39.720;2.910;2023-09-19T04:36:11;9.93;;;3.53;;
55728;SDS011;41633;39.720;2.910;2023-09-19T04:38:38;11.80;;;3.80;;
55728;SDS011;41633;39.720;2.910;2023-09-19T04:41:05;12.05;;;3.47;;
55728;SDS011;41633;39.720;2.910;2023-09-19T04:43:31;8.40;;;3.08;;
55728;SDS011;41633;39.720;2.910;2023-09-19T04:45:57;10.40;;;3.22;;
55728;SDS011;41633;39.720;2.910;2023-09-19T04:48:25;8.40;;;2.70;;
55728;SDS011;41633;39.720;2.910;2023-09-19T04:50:51;9.63;;;3.53;;
55728;SDS011;41633;39.720;2.910;2023-09-19T04:53:18;10.90;;;3.15;;
55728;SDS011;41633;39.720;2.910;2023-09-19T04:55:49;7.53;;;2.97;;
55728;SDS011;41633;39.720;2.910;2023-09-19T04:58:15;9.50;;;3.33;;
55728;SDS011;41633;39.720;2.910;2023-09-19T05:00:42;9.70;;;3.22;;
55728;SDS011;41633;39.720;2.910;2023-09-19T05:03:09;8.70;;;2.72;;
55728;SDS011;41633;39.720;2.910;2023-09-19T05:05:35;8.90;;;2.92;;
55728;SDS011;41633;39.720;2.910;2023-09-19T05:08:03;10.30;;;3.53;;
55728;SDS011;41633;39.720;2.910;2023-09-19T05:10:31;9.63;;;3.45;;
55728;SDS011;41633;39.720;2.910;2023-09-19T05:12:57;11.52;;;3.03;;
55728;SDS011;41633;39.720;2.910;2023-09-19T05:15:23;7.13;;;2.63;;
55728;SDS011;41633;39.720;2.910;2023-09-19T05:17:50;11.07;;;3.20;;
55728;SDS011;41633;39.720;2.910;2023-09-19T05:20:17;10.05;;;3.33;;
55728;SDS011;41633;39.720;2.910;2023-09-19T05:23:03;7.97;;;3.00;;
55728;SDS011;41633;39.720;2.910;2023-09-19T05:25:32;10.83;;;2.97;;
55728;SDS011;41633;39.720;2.910;2023-09-19T05:28:03;9.35;;;2.97;;
55728;SDS011;41633;39.720;2.910;2023-09-19T05:30:31;9.45;;;3.45;;
55728;SDS011;41633;39.720;2.910;2023-09-19T05:32:57;11.30;;;3.10;;
55728;SDS011;41633;39.720;2.910;2023-09-19T05:35:24;9.27;;;3.50;;
55728;SDS011;41633;39.720;2.910;2023-09-19T05:37:51;8.18;;;3.25;;
55728;SDS011;41633;39.720;2.910;2023-09-19T05:40:18;10.88;;;3.72;;
55728;SDS011;41633;39.720;2.910;2023-09-19T05:42:44;12.10;;;3.75;;
55728;SDS011;41633;39.720;2.910;2023-09-19T05:45:11;10.43;;;2.97;;
55728;SDS011;41633;39.720;2.910;2023-09-19T05:47:44;14.55;;;3.40;;
55728;SDS011;41633;39.720;2.910;2023-09-19T05:50:10;12.63;;;3.00;;
55728;SDS011;41633;39.720;2.910;2023-09-19T05:52:37;7.43;;;2.70;;
55728;SDS011;41633;39.720;2.910;2023-09-19T05:55:07;9.68;;;2.65;;
55728;SDS011;41633;39.720;2.910;2023-09-19T05:57:33;14.98;;;2.80;;
55728;SDS011;41633;39.720;2.910;2023-09-19T05:59:59;8.82;;;2.60;;
55728;SDS011;41633;39.720;2.910;2023-09-19T06:02:26;9.88;;;2.30;;
55728;SDS011;41633;39.720;2.910;2023-09-19T06:04:54;13.73;;;3.00;;
55728;SDS011;41633;39.720;2.910;2023-09-19T06:07:24;12.15;;;3.08;;
55728;SDS011;41633;39.720;2.910;2023-09-19T06:09:51;10.43;;;2.88;;
55728;SDS011;41633;39.720;2.910;2023-09-19T06:12:21;12.10;;;2.80;;
55728;SDS011;41633;39.720;2.910;2023-09-19T06:14:47;12.43;;;2.83;;
55728;SDS011;41633;39.720;2.910;2023-09-19T06:17:15;8.52;;;2.50;;
55728;SDS011;41633;39.720;2.910;2023-09-19T06:19:42;10.40;;;2.53;;
55728;SDS011;41633;39.720;2.910;2023-09-19T06:22:14;11.73;;;2.67;;
55728;SDS011;41633;39.720;2.910;2023-09-19T06:24:43;15.73;;;3.13;;
55728;SDS011;41633;39.720;2.910;2023-09-19T06:27:09;13.23;;;2.72;;
55728;SDS011;41633;39.720;2.910;2023-09-19T06:29:35;11.00;;;2.70;;
55728;SDS011;41633;39.720;2.910;2023-09-19T06:32:06;12.32;;;2.50;;
55728;SDS011;41633;39.720;2.910;2023-09-19T06:34:33;12.88;;;2.50;;
55728;SDS011;41633;39.720;2.910;2023-09-19T06:36:59;9.85;;;2.20;;
55728;SDS011;41633;39.720;2.910;2023-09-19T06:39:26;11.30;;;2.38;;
55728;SDS011;41633;39.720;2.910;2023-09-19T06:41:52;7.07;;;1.90;;
55728;SDS011;41633;39.720;2.910;2023-09-19T06:44:19;9.02;;;2.30;;
55728;SDS011;41633;39.720;2.910;2023-09-19T06:46:47;9.43;;;2.20;;
55728;SDS011;41633;39.720;2.910;2023-09-19T06:49:16;8.38;;;2.00;;
55728;SDS011;41633;39.720;2.910;2023-09-19T06:51:42;8.60;;;2.13;;
55728;SDS011;41633;39.720;2.910;2023-09-19T06:54:09;9.15;;;2.00;;
55728;SDS011;41633;39.720;2.910;2023-09-19T06:56:35;9.52;;;2.30;;
55728;SDS011;41633;39.720;2.910;2023-09-19T06:59:01;12.52;;;2.22;;
55728;SDS011;41633;39.720;2.910;2023-09-19T07:01:28;10.88;;;2.35;;
55728;SDS011;41633;39.720;2.910;2023-09-19T07:03:54;11.07;;;2.00;;
55728;SDS011;41633;39.720;2.910;2023-09-19T07:06:20;11.20;;;2.38;;
55728;SDS011;41633;39.720;2.910;2023-09-19T07:08:47;10.13;;;2.22;;
55728;SDS011;41633;39.720;2.910;2023-09-19T07:11:15;13.27;;;2.45;;
55728;SDS011;41633;39.720;2.910;2023-09-19T07:13:41;11.45;;;2.90;;
55728;SDS011;41633;39.720;2.910;2023-09-19T07:16:08;17.15;;;2.63;;
55728;SDS011;41633;39.720;2.910;2023-09-19T07:18:52;11.60;;;2.60;;
55728;SDS011;41633;39.720;2.910;2023-09-19T07:21:21;14.95;;;3.00;;
55728;SDS011;41633;39.720;2.910;2023-09-19T07:23:47;14.38;;;2.78;;
55728;SDS011;41633;39.720;2.910;2023-09-19T07:26:15;12.55;;;2.78;;
55728;SDS011;41633;39.720;2.910;2023-09-19T07:28:41;11.43;;;2.38;;
55728;SDS011;41633;39.720;2.910;2023-09-19T07:31:07;12.48;;;2.30;;
55728;SDS011;41633;39.720;2.910;2023-09-19T07:33:34;13.38;;;2.53;;
55728;SDS011;41633;39.720;2.910;2023-09-19T07:36:01;12.82;;;2.63;;
55728;SDS011;41633;39.720;2.910;2023-09-19T07:38:27;12.30;;;2.90;;
55728;SDS011;41633;39.720;2.910;2023-09-19T07:40:59;14.00;;;2.60;;
55728;SDS011;41633;39.720;2.910;2023-09-19T07:43:25;15.75;;;2.90;;
55728;SDS011;41633;39.720;2.910;2023-09-19T07:45:52;15.95;;;3.20;;
55728;SDS011;41633;39.720;2.910;2023-09-19T07:48:18;12.40;;;2.83;;
55728;SDS011;41633;39.720;2.910;2023-09-19T07:50:44;9.77;;;2.63;;
55728;SDS011;41633;39.720;2.910;2023-09-19T07:53:10;15.43;;;2.63;;
55728;SDS011;41633;39.720;2.910;2023-09-19T07:55:40;12.75;;;2.67;;
55728;SDS011;41633;39.720;2.910;2023-09-19T07:58:07;10.88;;;2.28;;
55728;SDS011;41633;39.720;2.910;2023-09-19T08:00:33;9.43;;;2.53;;
55728;SDS011;41633;39.720;2.910;2023-09-19T08:03:00;10.73;;;2.65;;
55728;SDS011;41633;39.720;2.910;2023-09-19T08:05:26;10.93;;;2.67;;
55728;SDS011;41633;39.720;2.910;2023-09-19T08:07:52;11.25;;;2.60;;
55728;SDS011;41633;39.720;2.910;2023-09-19T08:10:21;11.05;;;2.60;;
55728;SDS011;41633;39.720;2.910;2023-09-19T08:12:47;13.63;;;2.90;;
55728;SDS011;41633;39.720;2.910;2023-09-19T08:15:20;12.73;;;2.75;;
55728;SDS011;41633;39.720;2.910;2023-09-19T08:17:47;11.50;;;2.35;;
55728;SDS011;41633;39.720;2.910;2023-09-19T08:20:13;15.45;;;2.85;;
55728;SDS011;41633;39.720;2.910;2023-09-19T08:22:51;11.30;;;3.10;;
55728;SDS011;41633;39.720;2.910;2023-09-19T08:25:21;14.80;;;3.05;;
55728;SDS011;41633;39.720;2.910;2023-09-19T08:27:48;11.23;;;2.67;;
55728;SDS011;41633;39.720;2.910;2023-09-19T08:30:16;10.63;;;2.67;;
55728;SDS011;41633;39.720;2.910;2023-09-19T08:32:43;13.15;;;3.25;;
55728;SDS011;41633;39.720;2.910;2023-09-19T08:35:10;12.77;;;2.88;;
55728;SDS011;41633;39.720;2.910;2023-09-19T08:37:36;13.07;;;3.17;;
55728;SDS011;41633;39.720;2.910;2023-09-19T08:40:02;15.50;;;2.90;;
55728;SDS011;41633;39.720;2.910;2023-09-19T08:42:28;10.23;;;2.58;;
55728;SDS011;41633;39.720;2.910;2023-09-19T08:44:55;13.27;;;3.00;;
55728;SDS011;41633;39.720;2.910;2023-09-19T08:47:34;14.10;;;2.85;;
55728;SDS011;41633;39.720;2.910;2023-09-19T08:50:04;9.75;;;2.47;;
55728;SDS011;41633;39.720;2.910;2023-09-19T08:52:42;15.68;;;2.83;;
55728;SDS011;41633;39.720;2.910;2023-09-19T08:55:11;12.98;;;3.00;;
55728;SDS011;41633;39.720;2.910;2023-09-19T08:57:38;12.55;;;2.80;;
55728;SDS011;41633;39.720;2.910;2023-09-19T09:00:07;12.07;;;2.88;;
55728;SDS011;41633;39.720;2.910;2023-09-19T09:02:39;13.00;;;2.92;;
55728;SDS011;41633;39.720;2.910;2023-09-19T09:05:09;14.27;;;2.67;;
55728;SDS011;41633;39.720;2.910;2023-09-19T09:07:36;14.00;;;2.75;;
55728;SDS011;41633;39.720;2.910;2023-09-19T09:10:03;13.63;;;2.80;;
55728;SDS011;41633;39.720;2.910;2023-09-19T09:12:30;10.70;;;2.45;;
55728;SDS011;41633;39.720;2.910;2023-09-19T09:14:56;12.48;;;2.90;;
55728;SDS011;41633;39.720;2.910;2023-09-19T09:17:25;10.95;;;2.50;;
55728;SDS011;41633;39.720;2.910;2023-09-19T09:19:54;11.00;;;3.03;;
55728;SDS011;41633;39.720;2.910;2023-09-19T09:22:20;26.67;;;4.35;;
55728;SDS011;41633;39.720;2.910;2023-09-19T09:24:53;14.05;;;3.20;;
55728;SDS011;41633;39.720;2.910;2023-09-19T09:27:23;12.27;;;2.83;;
55728;SDS011;41633;39.720;2.910;2023-09-19T09:29:50;15.05;;;3.33;;
55728;SDS011;41633;39.720;2.910;2023-09-19T09:32:17;12.05;;;2.65;;
55728;SDS011;41633;39.720;2.910;2023-09-19T09:34:44;12.57;;;2.85;;
55728;SDS011;41633;39.720;2.910;2023-09-19T09:37:14;14.52;;;3.03;;
55728;SDS011;41633;39.720;2.910;2023-09-19T09:39:40;24.52;;;4.38;;
55728;SDS011;41633;39.720;2.910;2023-09-19T09:42:29;15.40;;;3.03;;
55728;SDS011;41633;39.720;2.910;2023-09-19T09:47:48;12.73;;;2.80;;
55728;SDS011;41633;39.720;2.910;2023-09-19T09:52:54;13.40;;;2.72;;
55728;SDS011;41633;39.720;2.910;2023-09-19T09:55:28;10.68;;;2.53;;
55728;SDS011;41633;39.720;2.910;2023-09-19T09:58:38;13.32;;;3.22;;
55728;SDS011;41633;39.720;2.910;2023-09-19T10:00:57;10.75;;;3.20;;
55728;SDS011;41633;39.720;2.910;2023-09-19T10:03:33;11.40;;;2.50;;
55728;SDS011;41633;39.720;2.910;2023-09-19T10:06:08;14.23;;;3.10;;
55728;SDS011;41633;39.720;2.910;2023-09-19T10:08:57;14.05;;;3.00;;
55728;SDS011;41633;39.720;2.910;2023-09-19T10:11:30;12.90;;;2.67;;
55728;SDS011;41633;39.720;2.910;2023-09-19T10:13:57;10.95;;;2.75;;
55728;SDS011;41633;39.720;2.910;2023-09-19T10:16:26;9.38;;;2.20;;
55728;SDS011;41633;39.720;2.910;2023-09-19T10:18:57;10.00;;;2.47;;
55728;SDS011;41633;39.720;2.910;2023-09-19T10:21:24;13.35;;;2.65;;
55728;SDS011;41633;39.720;2.910;2023-09-19T10:23:52;13.02;;;2.67;;
55728;SDS011;41633;39.720;2.910;2023-09-19T10:26:21;11.95;;;2.45;;
55728;SDS011;41633;39.720;2.910;2023-09-19T10:28:49;14.55;;;2.63;;
55728;SDS011;41633;39.720;2.910;2023-09-19T10:31:18;9.35;;;2.15;;
55728;SDS011;41633;39.720;2.910;2023-09-19T10:33:45;13.88;;;2.45;;
55728;SDS011;41633;39.720;2.910;2023-09-19T10:36:14;12.90;;;2.83;;
55728;SDS011;41633;39.720;2.910;2023-09-19T10:38:40;9.98;;;2.55;;
55728;SDS011;41633;39.720;2.910;2023-09-19T10:41:08;12.95;;;2.55;;
55728;SDS011;41633;39.720;2.910;2023-09-19T10:43:36;8.73;;;2.25;;
55728;SDS011;41633;39.720;2.910;2023-09-19T10:46:07;12.20;;;2.83;;
55728;SDS011;41633;39.720;2.910;2023-09-19T10:48:37;13.32;;;3.05;;
55728;SDS011;41633;39.720;2.910;2023-09-19T10:51:08;10.52;;;2.40;;
55728;SDS011;41633;39.720;2.910;2023-09-19T10:56:27;11.88;;;2.58;;
55728;SDS011;41633;39.720;2.910;2023-09-19T10:59:19;10.57;;;2.25;;
55728;SDS011;41633;39.720;2.910;2023-09-19T11:01:44;10.25;;;2.60;;
55728;SDS011;41633;39.720;2.910;2023-09-19T11:07:02;12.32;;;2.10;;
55728;SDS011;41633;39.720;2.910;2023-09-19T11:09:44;11.77;;;2.83;;
55728;SDS011;41633;39.720;2.910;2023-09-19T11:12:12;13.82;;;2.45;;
55728;SDS011;41633;39.720;2.910;2023-09-19T11:14:39;13.20;;;2.70;;
55728;SDS011;41633;39.720;2.910;2023-09-19T11:22:19;11.18;;;2.58;;
55728;SDS011;41633;39.720;2.910;2023-09-19T11:24:47;10.40;;;2.53;;
55728;SDS011;41633;39.720;2.910;2023-09-19T11:27:16;15.15;;;2.72;;
55728;SDS011;41633;39.720;2.910;2023-09-19T11:29:43;11.68;;;2.85;;
55728;SDS011;41633;39.720;2.910;2023-09-19T11:32:10;14.40;;;2.80;;
55728;SDS011;41633;39.720;2.910;2023-09-19T11:37:05;13.95;;;2.90;;
55728;SDS011;41633;39.720;2.910;2023-09-19T11:40:07;13.27;;;2.90;;
55728;SDS011;41633;39.720;2.910;2023-09-19T11:47:56;13.52;;;2.92;;
55728;SDS011;41633;39.720;2.910;2023-09-19T11:50:23;13.50;;;2.58;;
55728;SDS011;41633;39.720;2.910;2023-09-19T11:52:50;11.38;;;2.47;;
55728;SDS011;41633;39.720;2.910;2023-09-19T11:55:17;12.43;;;2.90;;
55728;SDS011;41633;39.720;2.910;2023-09-19T11:57:47;12.57;;;2.88;;
55728;SDS011;41633;39.720;2.910;2023-09-19T12:00:18;11.48;;;2.90;;
55728;SDS011;41633;39.720;2.910;2023-09-19T12:02:47;11.85;;;3.20;;
55728;SDS011;41633;39.720;2.910;2023-09-19T12:05:13;13.13;;;2.67;;
55728;SDS011;41633;39.720;2.910;2023-09-19T12:07:43;11.40;;;2.70;;
55728;SDS011;41633;39.720;2.910;2023-09-19T12:10:13;12.05;;;2.60;;
55728;SDS011;41633;39.720;2.910;2023-09-19T12:12:46;13.63;;;2.88;;
55728;SDS011;41633;39.720;2.910;2023-09-19T12:15:22;12.75;;;2.78;;
55728;SDS011;41633;39.720;2.910;2023-09-19T12:17:53;13.43;;;2.58;;
55728;SDS011;41633;39.720;2.910;2023-09-19T12:20:20;10.98;;;3.35;;
55728;SDS011;41633;39.720;2.910;2023-09-19T12:22:46;14.15;;;2.95;;
55728;SDS011;41633;39.720;2.910;2023-09-19T12:25:14;13.63;;;2.63;;
55728;SDS011;41633;39.720;2.910;2023-09-19T12:30:09;11.52;;;2.70;;
55728;SDS011;41633;39.720;2.910;2023-09-19T12:32:39;13.18;;;3.03;;
55728;SDS011;41633;39.720;2.910;2023-09-19T12:35:09;10.32;;;3.00;;
55728;SDS011;41633;39.720;2.910;2023-09-19T12:37:51;12.90;;;3.50;;
55728;SDS011;41633;39.720;2.910;2023-09-19T12:40:20;12.95;;;3.50;;
55728;SDS011;41633;39.720;2.910;2023-09-19T12:42:56;9.45;;;2.75;;
55728;SDS011;41633;39.720;2.910;2023-09-19T12:45:29;11.38;;;2.70;;
55728;SDS011;41633;39.720;2.910;2023-09-19T12:53:30;12.32;;;3.15;;
55728;SDS011;41633;39.720;2.910;2023-09-19T12:55:59;16.73;;;3.05;;
55728;SDS011;41633;39.720;2.910;2023-09-19T12:58:25;10.10;;;3.15;;
55728;SDS011;41633;39.720;2.910;2023-09-19T13:00:51;11.85;;;3.08;;
55728;SDS011;41633;39.720;2.910;2023-09-19T13:03:19;14.95;;;3.28;;
55728;SDS011;41633;39.720;2.910;2023-09-19T13:05:51;11.43;;;2.92;;
55728;SDS011;41633;39.720;2.910;2023-09-19T13:09:07;14.93;;;3.38;;
55728;SDS011;41633;39.720;2.910;2023-09-19T13:11:12;10.38;;;2.50;;
55728;SDS011;41633;39.720;2.910;2023-09-19T13:16:06;11.77;;;2.65;;
55728;SDS011;41633;39.720;2.910;2023-09-19T13:18:41;15.02;;;2.55;;
55728;SDS011;41633;39.720;2.910;2023-09-19T13:21:14;12.00;;;2.97;;
55728;SDS011;41633;39.720;2.910;2023-09-19T13:23:48;12.88;;;2.47;;
55728;SDS011;41633;39.720;2.910;2023-09-19T13:26:15;11.63;;;2.95;;
55728;SDS011;41633;39.720;2.910;2023-09-19T13:28:41;14.02;;;3.65;;
55728;SDS011;41633;39.720;2.910;2023-09-19T13:31:09;15.40;;;2.80;;
55728;SDS011;41633;39.720;2.910;2023-09-19T13:33:42;13.20;;;3.03;;
55728;SDS011;41633;39.720;2.910;2023-09-19T13:36:09;12.98;;;3.65;;
55728;SDS011;41633;39.720;2.910;2023-09-19T13:38:36;13.52;;;4.82;;
55728;SDS011;41633;39.720;2.910;2023-09-19T13:41:03;15.68;;;4.47;;
55728;SDS011;41633;39.720;2.910;2023-09-19T13:43:29;18.45;;;4.22;;
55728;SDS011;41633;39.720;2.910;2023-09-19T13:45:55;14.80;;;3.70;;
55728;SDS011;41633;39.720;2.910;2023-09-19T13:48:22;13.38;;;3.67;;
55728;SDS011;41633;39.720;2.910;2023-09-19T13:50:49;12.90;;;3.80;;
55728;SDS011;41633;39.720;2.910;2023-09-19T13:53:15;12.57;;;3.10;;
55728;SDS011;41633;39.720;2.910;2023-09-19T13:55:42;11.57;;;2.95;;
55728;SDS011;41633;39.720;2.910;2023-09-19T13:58:08;14.70;;;4.35;;
55728;SDS011;41633;39.720;2.910;2023-09-19T14:00:36;13.65;;;3.17;;
55728;SDS011;41633;39.720;2.910;2023-09-19T14:03:03;13.73;;;3.47;;
55728;SDS011;41633;39.720;2.910;2023-09-19T14:05:30;11.90;;;2.85;;
55728;SDS011;41633;39.720;2.910;2023-09-19T14:07:56;12.30;;;3.28;;
55728;SDS011;41633;39.720;2.910;2023-09-19T14:10:24;12.48;;;2.72;;
55728;SDS011;41633;39.720;2.910;2023-09-19T14:12:53;11.38;;;2.33;;
55728;SDS011;41633;39.720;2.910;2023-09-19T14:15:19;10.25;;;2.50;;
55728;SDS011;41633;39.720;2.910;2023-09-19T14:17:45;10.32;;;2.50;;
55728;SDS011;41633;39.720;2.910;2023-09-19T14:20:11;12.02;;;3.00;;
55728;SDS011;41633;39.720;2.910;2023-09-19T14:22:38;10.93;;;2.67;;
55728;SDS011;41633;39.720;2.910;2023-09-19T14:25:05;13.82;;;2.78;;
55728;SDS011;41633;39.720;2.910;2023-09-19T14:27:31;12.40;;;2.95;;
55728;SDS011;41633;39.720;2.910;2023-09-19T14:29:57;14.73;;;3.10;;
55728;SDS011;41633;39.720;2.910;2023-09-19T14:32:23;15.18;;;3.78;;
55728;SDS011;41633;39.720;2.910;2023-09-19T14:34:53;12.60;;;3.00;;
55728;SDS011;41633;39.720;2.910;2023-09-19T14:37:19;16.92;;;3.50;;
55728;SDS011;41633;39.720;2.910;2023-09-19T14:39:48;13.85;;;3.33;;
55728;SDS011;41633;39.720;2.910;2023-09-19T14:42:14;14.57;;;3.42;;
55728;SDS011;41633;39.720;2.910;2023-09-19T14:44:43;12.32;;;3.40;;
55728;SDS011;41633;39.720;2.910;2023-09-19T14:47:09;14.93;;;3.55;;
55728;SDS011;41633;39.720;2.910;2023-09-19T14:49:38;14.10;;;3.55;;
55728;SDS011;41633;39.720;2.910;2023-09-19T14:52:08;12.13;;;3.60;;
55728;SDS011;41633;39.720;2.910;2023-09-19T14:54:34;16.85;;;4.15;;
55728;SDS011;41633;39.720;2.910;2023-09-19T14:57:03;11.40;;;3.72;;
55728;SDS011;41633;39.720;2.910;2023-09-19T14:59:33;15.15;;;5.30;;
55728;SDS011;41633;39.720;2.910;2023-09-19T15:02:02;16.70;;;4.80;;
55728;SDS011;41633;39.720;2.910;2023-09-19T15:04:29;13.48;;;3.03;;
55728;SDS011;41633;39.720;2.910;2023-09-19T15:06:55;11.55;;;2.83;;
55728;SDS011;41633;39.720;2.910;2023-09-19T15:09:22;15.80;;;3.85;;
55728;SDS011;41633;39.720;2.910;2023-09-19T15:11:54;18.52;;;5.05;;
55728;SDS011;41633;39.720;2.910;2023-09-19T15:14:21;20.10;;;5.80;;
55728;SDS011;41633;39.720;2.910;2023-09-19T15:16:47;16.85;;;6.93;;
55728;SDS011;41633;39.720;2.910;2023-09-19T15:19:14;22.27;;;10.68;;
55728;SDS011;41633;39.720;2.910;2023-09-19T15:21:40;26.17;;;12.10;;
55728;SDS011;41633;39.720;2.910;2023-09-19T15:24:07;21.85;;;9.30;;
55728;SDS011;41633;39.720;2.910;2023-09-19T15:26:36;19.10;;;8.90;;
55728;SDS011;41633;39.720;2.910;2023-09-19T15:29:08;16.48;;;7.22;;
55728;SDS011;41633;39.720;2.910;2023-09-19T15:31:34;14.57;;;4.93;;
55728;SDS011;41633;39.720;2.910;2023-09-19T15:34:03;12.93;;;3.88;;
55728;SDS011;41633;39.720;2.910;2023-09-19T15:36:30;13.88;;;4.22;;